Historyczne dane pomiarowe

Dodano dane terminowe – wersja testowa.

Dane z okresu 1951-2019

Wersja bazy: 1.34 [2019-03-16, lista zmian], aktualizacja planowana na 2019-04-15

Dane meteo z obszaru Polski uzyskane na podstawie danych udostępnionych przez Instytut Meteorologii i Gospodarki Wodnej – Państwowy Instytut Badawczy.

 

Wybierz Datę:    

       

TemperaturaWilgotnośćWiatrCiśnienieOpadyŚniegCzas trwania zjawisk
 Stacja t tx tn tng RH VA  wxwx mslp ppp RRR   cm mm wxwxwxwxwxwxwx
1963-02-14 -5.6 -4.5 -9.4- 92.8- 8.0 3.3---- 0.3-- 27---------
1963-02-15 -5.2 -3.4 -6.5- 87.3- 8.0 2.0---- 0.2-- 30---------
1963-02-16 -5.3 -2.7 -7.0- 89.8- 7.7 4.3---- 0.1-- 31---------
1963-02-17 -6.1 -5.3 -7.2- 90.8- 8.0 5.7---- 0.7-- 31---------
1963-02-18 -7.5 -5.8 -8.4- 88.3- 8.0 3.7---- 2.4-- 33---------
1963-02-19 -8.2 -7.3-13.2- 85.3- 8.0 3.3---- 0.3-- 35---------
1963-02-20 -7.0 -5.8 -8.9- 85.0- 7.7 3.0---- 0.0-- 35---------
1963-02-21-11.3 -6.9-13.0- 81.8- 5.0 3.3---- 0.0-- 35---------
1963-02-22 -7.8 -3.9-14.6- 82.0- 3.3 3.0---- 0.0-- 35---------
1963-02-23-13.3 -6.5-21.0- 80.3- 2.0 2.3---- 0.0-- 35---------
1963-02-24 -9.2 -6.1-18.2- 88.3- 8.0 3.7---- 0.1-- 35---------
1963-02-25 -7.4 -1.3-10.1- 85.5- 8.0 7.3---- 0.9-- 35---------
1963-02-26-17.1 -8.1-19.8- 61.3- 0.0 2.7---- 0.0-- 36---------
1963-02-27-15.5-11.0-24.9- 80.3- 6.0 2.0---- 0.6-- 36---------
1963-02-28-11.2 -6.7-14.6- 73.8- 4.0 3.0---- 0.0-- 37---------
1963-03-01 -6.6 -3.5-15.0- 85.0- 5.7 4.0---- 0.1-- 37---------
1963-03-02 -4.3 -1.1 -5.8- 89.0- 6.3 5.7---- 0.1-- 37---------
1963-03-03 -1.5 -0.5 -5.8- 89.5- 8.0 5.7---- 0.2-- 37---------
1963-03-04 -4.1 -0.1 -6.8- 88.8- 6.3 1.0---- 0.1-- 37---------
1963-03-05 -1.9 0.1-14.6- 87.0- 7.7 2.3---- 0.0-- 36---------
1963-03-06 -1.2 2.1 -6.4- 92.3- 8.0 5.3---- 4.8-- 34---------
1963-03-07 2.1 3.1 1.3- 93.3- 8.0 6.0---- 0.9-- 20---------
1963-03-08 0.8 3.0 -0.8- 86.0- 7.0 7.0---- 0.1-- 12---------
1963-03-09 -5.7 -0.6 -6.2- 76.0- 6.7 5.0---- 0.0-- 10---------
1963-03-10 -8.1 -3.2-12.4- 65.0- 1.0 5.0---- 0.0-- 8---------
1963-03-11 -4.5 -1.9-11.2- 84.3- 6.7 4.7---- 0.3-- 8---------
1963-03-12 -0.2 3.3 -2.5- 92.5- 6.3 3.7---- 0.0-- 8---------
1963-03-13 0.0 4.1 -2.3- 95.3- 8.0 2.7---- 3.1-- 7---------
1963-03-14-10.3 -0.8-11.1- 66.5- 2.7 8.7---- 0.0-- 8---------
1963-03-15-10.3 -6.6-15.3- 64.3- 0.0 1.7---- 0.0-- 7---------
123.7 ms

 

Źródłem pochodzenia danych jest Instytut Meteorologii i Gospodarki Wodnej – Państwowy Instytut Badawczy. Dane Instytutu Meteorologii i Gospodarki Wodnej – Państwowego Instytutu Badawczego zostały przetworzone.

Dane źródłowe można odnaleźć na stronie https://dane.imgw.pl